Aromas, California
Current Conditions -  °F | °C
As of 9:53 AM on Thursday 29 Jan 2015 (Local Time) from KWVI Reporting Station
Clear Clear  
Wind Chill: 14°   Ceiling: Unl
Heat Index: 14°   Visibility: 10mi
Dew Point:   Wind: 0mph
Humidity: 69%   Direction: NA
Pressure: 30.14"   Gusts: NA
Location:  36.88°N, 121.64°W
Report Text: KWVI 291753Z AUTO 00000KT 10SM CLR 14/08 A3014 RMK AO2 SLP206 T01390083 10139 20061 50003
Loading
Personal Weather Stations






























Interactive Weather Map New forecast layout! Learn more

10-Day Weather Forecast

Advertisements
Track Severe Weather on mobile